Sandusky, Ohio
Current Conditions -  °F | °C
As of 3:32 AM on Friday 28 Nov 2014 (Local Time) from KPCW Reporting Station
Clear Clear  
Wind Chill: 13°   Ceiling: Unl
Heat Index: 25°   Visibility: 10mi
Dew Point: 14°   Wind: 14mph
Humidity: 64%   Direction: 300°WNW
Pressure: 30.33"   Gusts: NA
Location:  41.45°N, 82.71°W
Report Text: KPCW 280832Z AUTO 30012KT 270V330 10SM CLR M04/M10 A3033 RMK AO2 $
Loading
Personal Weather Stations






























Interactive Weather Map New forecast layout! Learn more

10-Day Weather Forecast

Advertisements
Track Severe Weather on mobile